createdAt,value
2022-08-17T00:00:43.466Z,11.20
2022-08-17T00:03:36.050Z,15.80
2022-08-17T00:06:28.114Z,11.30
2022-08-17T00:09:05.345Z,10.57
2022-08-17T00:11:43.304Z,12.43
2022-08-17T00:14:30.983Z,11.47
2022-08-17T00:16:58.956Z,15.27
2022-08-17T00:19:27.758Z,10.87
2022-08-17T00:22:31.530Z,13.17
2022-08-17T00:24:48.575Z,10.97
2022-08-17T00:27:16.118Z,12.03
2022-08-17T00:29:45.536Z,10.63
2022-08-17T00:33:14.623Z,11.33
2022-08-17T00:35:11.257Z,11.73
2022-08-17T00:37:39.401Z,14.10
2022-08-17T00:40:13.960Z,10.77
2022-08-17T00:42:45.891Z,10.20
2022-08-17T00:45:18.353Z,11.40
2022-08-17T00:47:47.090Z,12.97
2022-08-17T00:50:19.687Z,12.10
2022-08-17T00:52:58.878Z,11.57
2022-08-17T00:55:28.024Z,12.63
2022-08-17T00:58:05.725Z,11.50
2022-08-17T01:00:46.183Z,10.97
2022-08-17T01:03:26.739Z,12.50
2022-08-17T01:06:02.468Z,12.13
2022-08-17T01:08:33.048Z,12.97
2022-08-17T01:11:02.759Z,13.07
2022-08-17T01:13:43.377Z,12.03
2022-08-17T01:16:26.747Z,12.13
2022-08-17T01:19:21.258Z,13.70
2022-08-17T01:22:18.576Z,12.93
2022-08-17T01:25:00.921Z,14.13
2022-08-17T01:27:30.011Z,15.80
2022-08-17T01:30:57.465Z,16.23
2022-08-17T01:32:58.414Z,12.70
2022-08-17T01:35:26.329Z,13.93
2022-08-17T01:37:54.118Z,12.60
2022-08-17T01:40:46.510Z,12.23
2022-08-17T01:43:35.925Z,12.50
2022-08-17T01:46:04.317Z,12.17
2022-08-17T01:48:39.648Z,13.57
2022-08-17T01:51:08.177Z,12.70
2022-08-17T01:53:47.477Z,13.53
2022-08-17T01:56:23.344Z,12.83
2022-08-17T01:58:52.693Z,13.90
2022-08-17T02:01:27.844Z,14.17
2022-08-17T02:04:00.866Z,11.97
2022-08-17T02:06:45.227Z,12.20
2022-08-17T02:09:29.738Z,12.07
2022-08-17T02:12:37.679Z,13.60
2022-08-17T02:14:48.674Z,12.97
2022-08-17T02:17:16.408Z,14.03
2022-08-17T02:19:43.983Z,14.27
2022-08-17T02:22:12.110Z,11.27
2022-08-17T02:25:00.688Z,13.23
2022-08-17T02:27:28.266Z,13.93
2022-08-17T02:29:55.829Z,13.47
2022-08-17T02:32:27.916Z,12.73
2022-08-17T02:35:00.413Z,12.50
2022-08-17T02:37:30.373Z,15.70
2022-08-17T02:40:01.401Z,14.63
2022-08-17T02:42:42.919Z,13.10
2022-08-17T02:45:22.960Z,13.13
2022-08-17T02:47:52.422Z,14.57
2022-08-17T02:50:24.545Z,13.87
2022-08-17T02:53:01.612Z,13.90
2022-08-17T02:55:41.227Z,15.00
2022-08-17T02:58:11.661Z,15.13
2022-08-17T03:00:48.757Z,16.27
2022-08-17T03:03:21.165Z,13.77
2022-08-17T03:05:51.518Z,14.17
2022-08-17T03:08:20.265Z,15.53
2022-08-17T03:10:48.937Z,15.93
2022-08-17T03:13:17.018Z,15.30
2022-08-17T03:15:49.080Z,16.33
2022-08-17T03:18:28.604Z,16.73
2022-08-17T03:21:04.523Z,16.17
2022-08-17T03:23:33.843Z,19.13
2022-08-17T03:26:01.559Z,16.50
2022-08-17T03:28:29.815Z,19.80
2022-08-17T03:30:57.382Z,17.20
2022-08-17T03:33:25.085Z,16.60
2022-08-17T03:35:53.132Z,16.40
2022-08-17T03:38:21.982Z,16.60
2022-08-17T03:40:58.721Z,20.87
2022-08-17T03:43:33.490Z,16.80
2022-08-17T03:46:28.123Z,16.80
2022-08-17T03:49:26.655Z,17.40
2022-08-17T03:52:16.299Z,16.90
2022-08-17T03:55:04.073Z,21.30
2022-08-17T03:57:32.572Z,20.27
2022-08-17T04:00:00.350Z,17.87
2022-08-17T04:02:37.076Z,16.47
2022-08-17T04:05:23.807Z,17.13
2022-08-17T04:07:53.188Z,18.87
2022-08-17T04:10:24.709Z,17.77
2022-08-17T04:12:55.894Z,16.43
2022-08-17T04:15:24.238Z,19.40
2022-08-17T04:17:52.989Z,15.20
2022-08-17T04:20:24.737Z,16.83
2022-08-17T04:23:11.649Z,14.87
2022-08-17T04:25:49.654Z,17.60
2022-08-17T04:28:21.377Z,18.03
2022-08-17T04:30:49.016Z,17.00
2022-08-17T04:33:24.300Z,16.70
2022-08-17T04:36:01.716Z,19.77
2022-08-17T04:38:37.263Z,15.53
2022-08-17T04:41:26.156Z,17.93
2022-08-17T04:43:58.297Z,15.10
2022-08-17T04:46:35.646Z,15.70
2022-08-17T04:49:11.122Z,17.27
2022-08-17T04:51:54.485Z,15.97
2022-08-17T04:54:24.266Z,16.07
2022-08-17T04:56:52.868Z,16.27
2022-08-17T04:59:23.407Z,17.33
2022-08-17T05:01:52.805Z,17.10
2022-08-17T05:04:33.825Z,19.40
2022-08-17T05:07:04.739Z,16.60
2022-08-17T05:09:33.038Z,15.60
2022-08-17T05:12:04.491Z,15.23
2022-08-17T05:14:33.182Z,15.23
2022-08-17T05:17:09.384Z,15.77
2022-08-17T05:19:39.054Z,15.20
2022-08-17T05:22:06.980Z,14.43
2022-08-17T05:24:42.756Z,15.23
2022-08-17T05:27:20.252Z,15.67
2022-08-17T05:29:47.984Z,14.60
2022-08-17T05:32:37.897Z,14.23
2022-08-17T05:35:03.773Z,11.97
2022-08-17T05:37:31.381Z,11.83
2022-08-17T05:39:58.920Z,16.43
2022-08-17T05:42:26.506Z,14.63
2022-08-17T05:44:59.065Z,12.90
2022-08-17T05:47:28.547Z,11.60
2022-08-17T05:49:56.699Z,11.50
2022-08-17T05:53:04.470Z,18.97
2022-08-17T05:55:57.413Z,11.00
2022-08-17T05:58:59.234Z,14.07
2022-08-17T06:02:35.839Z,13.80
2022-08-17T06:05:40.691Z,10.33
2022-08-17T06:08:52.267Z,9.50
2022-08-17T06:11:44.251Z,13.20
2022-08-17T06:14:44.363Z,12.57
2022-08-17T06:17:28.717Z,11.30
2022-08-17T06:20:15.720Z,11.63
2022-08-17T06:23:04.675Z,11.63
2022-08-17T06:25:49.844Z,9.67
2022-08-17T06:28:41.797Z,10.80
2022-08-17T06:31:29.404Z,10.23
2022-08-17T06:34:03.054Z,11.53
2022-08-17T06:37:12.574Z,10.97
2022-08-17T06:40:45.717Z,13.50
2022-08-17T06:44:43.526Z,9.93
2022-08-17T06:47:59.518Z,12.30
2022-08-17T06:50:55.570Z,11.00
2022-08-17T06:54:05.595Z,10.40
2022-08-17T06:57:02.661Z,10.30
2022-08-17T06:59:57.570Z,16.50
2022-08-17T07:03:25.135Z,9.50
2022-08-17T07:06:03.444Z,13.53
2022-08-17T07:09:34.598Z,12.50
2022-08-17T07:12:29.909Z,13.63
2022-08-17T07:15:27.302Z,11.90
2022-08-17T07:17:56.225Z,12.53
2022-08-17T07:20:24.162Z,14.40
2022-08-17T07:23:14.672Z,14.80
2022-08-17T07:25:42.868Z,12.93
2022-08-17T07:28:10.396Z,21.73
2022-08-17T07:30:52.075Z,21.20
2022-08-17T07:33:33.198Z,15.00
2022-08-17T07:36:01.774Z,13.40
2022-08-17T07:38:35.703Z,10.53
2022-08-17T07:41:11.353Z,12.43
2022-08-17T07:43:41.622Z,11.43
2022-08-17T07:47:12.773Z,13.87
2022-08-17T07:49:46.611Z,10.63
2022-08-17T07:52:50.692Z,10.50
2022-08-17T07:55:35.051Z,11.07
2022-08-17T07:58:03.502Z,12.43
2022-08-17T08:00:33.735Z,13.37
2022-08-17T08:03:24.662Z,12.43
2022-08-17T08:06:03.286Z,7.50
2022-08-17T08:08:56.206Z,7.87
2022-08-17T08:11:40.181Z,19.33
2022-08-17T08:15:17.826Z,8.10
2022-08-17T08:18:05.480Z,9.77
2022-08-17T08:20:59.724Z,9.90
2022-08-17T08:23:37.332Z,13.50
2022-08-17T08:26:55.533Z,9.20
2022-08-17T08:29:49.123Z,10.00
2022-08-17T08:33:04.289Z,12.27
2022-08-17T08:36:56.848Z,8.63
2022-08-17T08:40:25.852Z,12.70
2022-08-17T08:43:53.049Z,13.07
2022-08-17T08:47:02.014Z,10.33
2022-08-17T08:50:07.874Z,12.40
2022-08-17T08:53:49.100Z,10.43
2022-08-17T08:57:11.526Z,11.70
2022-08-17T09:00:20.168Z,11.47
2022-08-17T09:04:21.347Z,12.07
2022-08-17T09:07:41.209Z,9.20
2022-08-17T09:11:02.533Z,10.63
2022-08-17T09:14:21.824Z,11.50
2022-08-17T09:17:29.918Z,10.73
2022-08-17T09:20:28.529Z,10.80
2022-08-17T09:23:24.220Z,10.63
2022-08-17T09:26:39.485Z,11.10
2022-08-17T09:29:16.234Z,10.67
2022-08-17T09:31:57.497Z,7.70
2022-08-17T09:34:48.441Z,14.77
2022-08-17T09:38:11.152Z,12.53
2022-08-17T09:41:24.379Z,10.33
2022-08-17T09:44:31.016Z,14.90
2022-08-17T09:47:04.330Z,11.20
2022-08-17T09:49:56.669Z,16.80
2022-08-17T09:52:30.671Z,14.73
2022-08-17T09:55:01.857Z,11.90
2022-08-17T09:58:12.325Z,15.57
2022-08-17T10:01:01.845Z,17.03
2022-08-17T10:04:20.077Z,15.50
2022-08-17T10:07:19.922Z,10.73
2022-08-17T10:10:42.594Z,13.93
2022-08-17T10:14:37.015Z,15.53
2022-08-17T10:18:18.744Z,14.73
2022-08-17T10:21:33.850Z,9.33
2022-08-17T10:25:01.997Z,12.33
2022-08-17T10:27:58.112Z,13.23
2022-08-17T10:30:34.929Z,16.33
2022-08-17T10:33:33.349Z,12.20
2022-08-17T10:36:37.967Z,13.43
2022-08-17T10:39:28.043Z,15.17
2022-08-17T10:42:16.226Z,16.10
2022-08-17T10:45:26.285Z,14.40
2022-08-17T10:48:38.349Z,15.57
2022-08-17T10:51:40.206Z,17.30
2022-08-17T10:54:48.109Z,20.10
2022-08-17T10:57:31.832Z,15.60
2022-08-17T11:00:24.177Z,20.63
2022-08-17T11:02:58.615Z,17.17
2022-08-17T11:06:05.557Z,18.73
2022-08-17T11:10:01.129Z,19.73
2022-08-17T11:13:01.674Z,21.60
2022-08-17T11:16:29.000Z,23.03
2022-08-17T11:20:02.594Z,23.80
2022-08-17T11:23:05.803Z,22.00
2022-08-17T11:25:59.099Z,23.63
2022-08-17T11:28:44.851Z,27.27
2022-08-17T11:31:58.565Z,29.80
2022-08-17T11:34:31.795Z,30.10
2022-08-17T11:37:35.992Z,29.50
2022-08-17T11:40:35.647Z,29.93
2022-08-17T11:44:02.860Z,32.07
2022-08-17T11:47:38.487Z,32.17
2022-08-17T11:51:02.670Z,32.97
2022-08-17T11:53:39.351Z,34.77
2022-08-17T11:56:31.849Z,33.33
2022-08-17T11:59:00.954Z,36.73
2022-08-17T12:01:31.618Z,38.23
2022-08-17T12:04:32.786Z,35.33
2022-08-17T12:07:19.936Z,33.57
2022-08-17T12:09:56.856Z,38.60
2022-08-17T12:12:35.977Z,38.33
2022-08-17T12:15:14.309Z,36.07
2022-08-17T12:17:46.712Z,41.17
2022-08-17T12:20:21.571Z,42.43
2022-08-17T12:23:08.027Z,43.43
2022-08-17T12:26:19.915Z,40.70
2022-08-17T12:29:18.327Z,41.80
2022-08-17T12:32:07.216Z,43.63
2022-08-17T12:34:45.660Z,44.90
2022-08-17T12:37:27.650Z,48.03
2022-08-17T12:40:23.347Z,46.33
2022-08-17T12:43:27.006Z,50.80
2022-08-17T12:46:13.306Z,46.73
2022-08-17T12:48:58.971Z,49.97
2022-08-17T12:51:29.278Z,49.50
2022-08-17T12:53:57.711Z,51.10
2022-08-17T12:56:25.763Z,47.90
2022-08-17T12:58:56.511Z,52.07
2022-08-17T13:01:26.288Z,52.20
2022-08-17T13:03:59.808Z,54.50
2022-08-17T13:06:37.056Z,51.00
2022-08-17T13:09:33.590Z,48.10
2022-08-17T13:12:08.571Z,49.03
2022-08-17T13:14:36.412Z,52.33
2022-08-17T13:17:12.659Z,52.73
2022-08-17T13:19:52.008Z,52.43
2022-08-17T13:22:26.765Z,49.17
2022-08-17T13:25:10.851Z,47.60
2022-08-17T13:28:00.607Z,46.40
2022-08-17T13:30:35.728Z,49.33
2022-08-17T13:33:45.202Z,51.90
2022-08-17T13:36:34.989Z,46.00
2022-08-17T13:39:25.867Z,48.37
2022-08-17T13:41:56.185Z,51.00
2022-08-17T13:44:39.439Z,44.20
2022-08-17T13:47:20.532Z,47.30
2022-08-17T13:49:49.522Z,46.23
2022-08-17T13:52:43.513Z,51.67
2022-08-17T13:55:24.744Z,49.27
2022-08-17T13:58:03.599Z,47.97
2022-08-17T14:00:37.072Z,49.43
2022-08-17T14:03:06.637Z,56.47
2022-08-17T14:05:38.238Z,53.50
2022-08-17T14:08:07.030Z,54.33
2022-08-17T14:10:36.675Z,54.70
2022-08-17T14:13:07.493Z,53.50
2022-08-17T14:15:54.563Z,55.80
2022-08-17T14:18:55.221Z,53.27
2022-08-17T14:21:11.123Z,49.40
2022-08-17T14:23:39.405Z,45.53
2022-08-17T14:26:08.840Z,47.60
2022-08-17T14:28:38.830Z,45.40
2022-08-17T14:31:22.681Z,48.00
2022-08-17T14:33:50.265Z,49.37
2022-08-17T14:36:18.296Z,54.50
2022-08-17T14:38:45.854Z,51.70
2022-08-17T14:41:18.731Z,54.73
2022-08-17T14:43:53.573Z,44.90
2022-08-17T14:46:21.374Z,45.53
2022-08-17T14:48:51.731Z,47.80
2022-08-17T14:51:23.862Z,46.87
2022-08-17T14:53:51.415Z,48.40
2022-08-17T14:56:19.509Z,48.97
2022-08-17T14:58:47.034Z,44.80
2022-08-17T15:01:15.320Z,40.37
2022-08-17T15:03:43.055Z,40.10
2022-08-17T15:06:14.715Z,43.20
2022-08-17T15:08:44.314Z,47.60
2022-08-17T15:11:14.528Z,43.50
2022-08-17T15:13:52.279Z,48.67
2022-08-17T15:16:20.961Z,49.13
2022-08-17T15:18:49.168Z,49.70
2022-08-17T15:21:18.269Z,46.87
2022-08-17T15:23:46.325Z,45.30
2022-08-17T15:26:14.073Z,43.40
2022-08-17T15:28:41.654Z,42.23
2022-08-17T15:31:09.170Z,42.77
2022-08-17T15:33:36.740Z,51.23
2022-08-17T15:36:08.577Z,48.07
2022-08-17T15:38:40.653Z,49.03
2022-08-17T15:41:18.326Z,48.20
2022-08-17T15:43:52.057Z,51.97
2022-08-17T15:46:25.959Z,49.27
2022-08-17T15:49:00.445Z,46.57
2022-08-17T15:51:35.924Z,45.27
2022-08-17T15:54:22.347Z,43.53
2022-08-17T15:56:51.278Z,44.10
2022-08-17T15:59:19.507Z,44.93
2022-08-17T16:03:14.192Z,46.23
2022-08-17T16:04:34.641Z,42.30
2022-08-17T16:07:02.177Z,41.60
2022-08-17T16:09:29.711Z,47.77
2022-08-17T16:11:57.318Z,50.10
2022-08-17T16:14:32.331Z,49.43
2022-08-17T16:17:02.111Z,52.80
2022-08-17T16:19:29.564Z,46.07
2022-08-17T16:21:57.407Z,47.83
2022-08-17T16:24:25.417Z,48.17
2022-08-17T16:26:53.541Z,42.83
2022-08-17T16:29:21.833Z,45.07
2022-08-17T16:31:50.242Z,45.30
2022-08-17T16:34:19.084Z,46.90
2022-08-17T16:36:54.996Z,43.20
2022-08-17T16:39:33.181Z,47.70
2022-08-17T16:42:02.801Z,48.53
2022-08-17T16:44:32.575Z,49.50
2022-08-17T16:47:03.400Z,48.47
2022-08-17T16:49:37.397Z,48.80
2022-08-17T16:52:12.700Z,49.17
2022-08-17T16:54:45.515Z,47.27
2022-08-17T16:57:17.546Z,47.53
2022-08-17T16:59:50.341Z,47.00
2022-08-17T17:02:37.293Z,42.80
2022-08-17T17:05:55.199Z,41.53
2022-08-17T17:08:44.597Z,37.57
2022-08-17T17:11:54.525Z,40.70
2022-08-17T17:14:43.438Z,44.20
2022-08-17T17:17:39.001Z,39.67
2022-08-17T17:20:24.496Z,36.17
2022-08-17T17:23:34.411Z,38.67
2022-08-17T17:26:51.710Z,36.03
2022-08-17T17:30:08.276Z,34.77
2022-08-17T17:33:09.590Z,34.87
2022-08-17T17:36:07.011Z,34.70
2022-08-17T17:39:00.219Z,35.80
2022-08-17T17:41:54.993Z,38.73
2022-08-17T17:44:43.657Z,36.13
2022-08-17T17:47:15.250Z,41.63
2022-08-17T17:49:50.633Z,43.70
2022-08-17T17:52:54.814Z,41.63
2022-08-17T17:56:34.351Z,44.53
2022-08-17T18:00:02.263Z,48.80
2022-08-17T18:03:17.820Z,45.13
2022-08-17T18:06:39.820Z,46.93
2022-08-17T18:10:13.653Z,48.03
2022-08-17T18:13:53.504Z,47.60
2022-08-17T18:16:21.293Z,48.13
2022-08-17T18:18:52.464Z,48.13
2022-08-17T18:21:38.085Z,49.37
2022-08-17T18:24:10.688Z,49.83
2022-08-17T18:26:59.400Z,50.70
2022-08-17T18:29:40.538Z,50.43
2022-08-17T18:32:44.529Z,52.23
2022-08-17T18:35:11.934Z,51.83
2022-08-17T18:38:27.526Z,52.77
2022-08-17T18:41:26.506Z,52.90
2022-08-17T18:44:42.348Z,54.70
2022-08-17T18:47:29.677Z,52.13
2022-08-17T18:50:43.921Z,52.60
2022-08-17T18:54:39.852Z,51.67
2022-08-17T18:57:12.367Z,54.37
2022-08-17T18:59:48.679Z,55.90
2022-08-17T19:02:43.873Z,56.23
2022-08-17T19:05:36.853Z,57.10
2022-08-17T19:08:30.548Z,58.90
2022-08-17T19:11:09.715Z,56.00
2022-08-17T19:14:16.688Z,51.30
2022-08-17T19:17:07.556Z,51.63
2022-08-17T19:20:10.813Z,57.90
2022-08-17T19:23:33.612Z,60.73
2022-08-17T19:26:07.070Z,58.30
2022-08-17T19:30:05.507Z,55.40
2022-08-17T19:32:36.595Z,67.10
2022-08-17T19:35:17.145Z,57.73
2022-08-17T19:38:36.358Z,58.77
2022-08-17T19:42:04.814Z,60.50
2022-08-17T19:45:24.796Z,55.07
2022-08-17T19:48:45.675Z,56.73
2022-08-17T19:52:00.841Z,59.30
2022-08-17T19:55:04.833Z,58.67
2022-08-17T19:58:21.616Z,61.00
2022-08-17T20:00:54.722Z,64.87
2022-08-17T20:03:34.836Z,58.37
2022-08-17T20:06:13.826Z,61.30
2022-08-17T20:09:22.308Z,56.10
2022-08-17T20:12:04.093Z,54.73
2022-08-17T20:15:12.468Z,56.23
2022-08-17T20:17:48.018Z,57.27
2022-08-17T20:21:10.361Z,49.33
2022-08-17T20:25:06.460Z,53.00
2022-08-17T20:28:05.640Z,58.70
2022-08-17T20:30:43.697Z,54.53
2022-08-17T20:33:37.758Z,56.43
2022-08-17T20:36:24.931Z,53.50
2022-08-17T20:38:59.212Z,53.43
2022-08-17T20:41:31.051Z,51.00
2022-08-17T20:43:59.021Z,58.27
2022-08-17T20:46:38.539Z,54.93
2022-08-17T20:49:15.655Z,55.90
2022-08-17T20:52:36.376Z,52.70
2022-08-17T20:55:05.161Z,53.33
2022-08-17T20:57:32.648Z,56.83
2022-08-17T21:00:28.075Z,57.17
2022-08-17T21:03:49.191Z,60.60
2022-08-17T21:06:24.195Z,60.40
2022-08-17T21:09:13.646Z,54.83
2022-08-17T21:12:04.987Z,58.40
2022-08-17T21:15:03.737Z,63.80
2022-08-17T21:18:41.831Z,62.00
2022-08-17T21:22:01.830Z,59.77
2022-08-17T21:25:28.052Z,60.30
2022-08-17T21:29:01.136Z,64.80
2022-08-17T21:32:15.871Z,64.50
2022-08-17T21:35:28.588Z,66.30
2022-08-17T21:38:05.161Z,68.10
2022-08-17T21:40:36.198Z,71.47
2022-08-17T21:43:34.120Z,64.87
2022-08-17T21:46:36.948Z,73.37
2022-08-17T21:49:16.810Z,73.73
2022-08-17T21:51:56.839Z,73.30
2022-08-17T21:54:47.374Z,73.37
2022-08-17T21:57:29.566Z,74.20
2022-08-17T22:00:16.029Z,74.33
2022-08-17T22:02:55.466Z,66.43
2022-08-17T22:05:40.295Z,75.50
2022-08-17T22:08:23.177Z,73.77
2022-08-17T22:11:02.179Z,71.30
2022-08-17T22:13:30.134Z,62.63
2022-08-17T22:16:29.217Z,77.23
2022-08-17T22:18:59.662Z,71.67
2022-08-17T22:21:28.243Z,74.70
2022-08-17T22:24:21.294Z,72.83
2022-08-17T22:27:13.908Z,71.90
2022-08-17T22:29:58.511Z,84.07
2022-08-17T22:32:49.420Z,82.73
2022-08-17T22:35:41.700Z,80.00
2022-08-17T22:38:21.447Z,81.60
2022-08-17T22:41:34.420Z,80.37
2022-08-17T22:44:48.209Z,93.90
2022-08-17T22:47:16.360Z,88.40
2022-08-17T22:50:00.289Z,90.87
2022-08-17T22:53:15.923Z,93.43
2022-08-17T22:56:15.940Z,84.03
2022-08-17T22:59:16.209Z,92.00
2022-08-17T23:02:15.693Z,89.57
2022-08-17T23:05:16.961Z,97.93
2022-08-17T23:07:51.089Z,98.67
2022-08-17T23:10:18.865Z,107.30
2022-08-17T23:12:46.652Z,105.93
2022-08-17T23:15:19.851Z,100.40
2022-08-17T23:17:47.863Z,99.60
2022-08-17T23:20:17.683Z,100.87
2022-08-17T23:22:51.896Z,89.77
2022-08-17T23:25:33.695Z,85.77
2022-08-17T23:28:06.270Z,109.30
2022-08-17T23:30:48.419Z,104.20
2022-08-17T23:33:39.289Z,106.63
2022-08-17T23:36:15.051Z,106.80
2022-08-17T23:38:46.676Z,108.80
2022-08-17T23:41:31.933Z,104.23
2022-08-17T23:44:02.187Z,98.90
2022-08-17T23:46:29.696Z,89.23
2022-08-17T23:48:57.251Z,99.70
2022-08-17T23:51:35.776Z,104.00
2022-08-17T23:54:27.048Z,103.67
2022-08-17T23:56:54.907Z,106.47
2022-08-17T23:59:24.061Z,105.70
